sensor_id;sensor_type;location;lat;lon;timestamp;pressure;altitude;pressure_sealevel;temperature;humidity
11268;BME280;49397;47.474;9.416;2022-11-15T00:01:44;95291.16;;;6.40;99.62
11268;BME280;49397;47.474;9.416;2022-11-15T00:04:10;95283.06;;;6.40;100.00
11268;BME280;49397;47.474;9.416;2022-11-15T00:06:35;95272.06;;;6.36;100.00
11268;BME280;49397;47.474;9.416;2022-11-15T00:09:01;95276.41;;;6.32;100.00
11268;BME280;49397;47.474;9.416;2022-11-15T00:11:27;95276.34;;;6.37;100.00
11268;BME280;49397;47.474;9.416;2022-11-15T00:13:57;95278.25;;;6.37;100.00
11268;BME280;49397;47.474;9.416;2022-11-15T00:16:23;95269.66;;;6.35;99.57
11268;BME280;49397;47.474;9.416;2022-11-15T00:18:48;95264.66;;;6.23;99.46
11268;BME280;49397;47.474;9.416;2022-11-15T00:21:14;95275.00;;;6.16;100.00
11268;BME280;49397;47.474;9.416;2022-11-15T00:23:40;95266.19;;;6.05;98.97
11268;BME280;49397;47.474;9.416;2022-11-15T00:26:06;95270.28;;;6.03;99.19
11268;BME280;49397;47.474;9.416;2022-11-15T00:28:32;95262.53;;;5.96;98.85
11268;BME280;49397;47.474;9.416;2022-11-15T00:31:02;95269.94;;;6.09;98.29
11268;BME280;49397;47.474;9.416;2022-11-15T00:33:28;95265.84;;;6.12;98.23
11268;BME280;49397;47.474;9.416;2022-11-15T00:35:59;95260.94;;;6.19;98.22
11268;BME280;49397;47.474;9.416;2022-11-15T00:38:25;95263.94;;;6.18;97.96
11268;BME280;49397;47.474;9.416;2022-11-15T00:40:50;95263.97;;;6.12;97.23
11268;BME280;49397;47.474;9.416;2022-11-15T00:43:16;95270.66;;;6.15;96.50
11268;BME280;49397;47.474;9.416;2022-11-15T00:45:41;95265.72;;;6.03;96.76
11268;BME280;49397;47.474;9.416;2022-11-15T00:48:08;95259.41;;;5.89;97.38
11268;BME280;49397;47.474;9.416;2022-11-15T00:50:34;95270.16;;;5.89;98.19
11268;BME280;49397;47.474;9.416;2022-11-15T00:53:00;95270.72;;;5.86;97.77
11268;BME280;49397;47.474;9.416;2022-11-15T00:55:25;95254.38;;;5.78;99.32
11268;BME280;49397;47.474;9.416;2022-11-15T00:57:51;95258.34;;;5.85;98.35
11268;BME280;49397;47.474;9.416;2022-11-15T01:00:16;95259.03;;;5.96;99.10
11268;BME280;49397;47.474;9.416;2022-11-15T01:02:42;95246.00;;;5.84;98.59
11268;BME280;49397;47.474;9.416;2022-11-15T01:05:08;95257.28;;;5.81;99.02
11268;BME280;49397;47.474;9.416;2022-11-15T01:07:33;95258.50;;;5.70;99.19
11268;BME280;49397;47.474;9.416;2022-11-15T01:09:59;95258.03;;;5.58;99.72
11268;BME280;49397;47.474;9.416;2022-11-15T01:12:24;95247.41;;;5.48;100.00
11268;BME280;49397;47.474;9.416;2022-11-15T01:14:50;95252.06;;;5.66;99.83
11268;BME280;49397;47.474;9.416;2022-11-15T01:17:15;95260.03;;;5.76;98.80
11268;BME280;49397;47.474;9.416;2022-11-15T01:19:41;95253.53;;;5.82;97.77
11268;BME280;49397;47.474;9.416;2022-11-15T01:22:06;95248.91;;;5.88;97.28
11268;BME280;49397;47.474;9.416;2022-11-15T01:24:32;95258.88;;;5.87;95.76
11268;BME280;49397;47.474;9.416;2022-11-15T01:26:57;95259.16;;;5.86;96.42
11268;BME280;49397;47.474;9.416;2022-11-15T01:29:23;95250.56;;;5.84;96.07
11268;BME280;49397;47.474;9.416;2022-11-15T01:31:48;95247.38;;;5.77;97.30
11268;BME280;49397;47.474;9.416;2022-11-15T01:34:14;95235.34;;;5.69;98.13
11268;BME280;49397;47.474;9.416;2022-11-15T01:36:40;95245.19;;;5.84;97.90
11268;BME280;49397;47.474;9.416;2022-11-15T01:39:06;95230.94;;;5.78;97.74
11268;BME280;49397;47.474;9.416;2022-11-15T01:41:32;95227.03;;;5.66;97.85
11268;BME280;49397;47.474;9.416;2022-11-15T01:47:03;95238.03;;;5.69;96.49
11268;BME280;49397;47.474;9.416;2022-11-15T01:49:32;95232.19;;;5.62;96.03
11268;BME280;49397;47.474;9.416;2022-11-15T01:52:01;95228.22;;;5.55;96.63
11268;BME280;49397;47.474;9.416;2022-11-15T01:54:27;95229.22;;;5.64;95.99
11268;BME280;49397;47.474;9.416;2022-11-15T01:56:59;95232.06;;;5.72;94.53
11268;BME280;49397;47.474;9.416;2022-11-15T01:59:27;95223.78;;;5.69;94.67
11268;BME280;49397;47.474;9.416;2022-11-15T02:01:52;95227.22;;;5.74;95.93
11268;BME280;49397;47.474;9.416;2022-11-15T02:04:25;95221.31;;;5.72;95.99
11268;BME280;49397;47.474;9.416;2022-11-15T02:06:51;95222.97;;;5.68;96.16
11268;BME280;49397;47.474;9.416;2022-11-15T02:09:17;95215.44;;;5.70;97.16
11268;BME280;49397;47.474;9.416;2022-11-15T02:11:43;95207.63;;;5.69;96.06
11268;BME280;49397;47.474;9.416;2022-11-15T02:14:11;95216.97;;;5.76;94.38
11268;BME280;49397;47.474;9.416;2022-11-15T02:16:58;95220.69;;;5.80;94.97
11268;BME280;49397;47.474;9.416;2022-11-15T02:25:29;95194.63;;;5.76;97.04
11268;BME280;49397;47.474;9.416;2022-11-15T02:28:33;95189.53;;;5.74;95.81
11268;BME280;49397;47.474;9.416;2022-11-15T02:34:00;95187.19;;;5.68;96.72
11268;BME280;49397;47.474;9.416;2022-11-15T02:39:19;95171.28;;;5.95;93.00
11268;BME280;49397;47.474;9.416;2022-11-15T02:41:54;95173.91;;;6.00;92.42
11268;BME280;49397;47.474;9.416;2022-11-15T02:44:43;95167.41;;;5.82;93.25
11268;BME280;49397;47.474;9.416;2022-11-15T02:47:14;95175.47;;;5.82;93.17
11268;BME280;49397;47.474;9.416;2022-11-15T02:49:47;95174.66;;;5.82;93.67
11268;BME280;49397;47.474;9.416;2022-11-15T02:52:15;95169.75;;;5.89;93.44
11268;BME280;49397;47.474;9.416;2022-11-15T02:54:41;95169.75;;;5.89;92.70
11268;BME280;49397;47.474;9.416;2022-11-15T02:57:12;95178.56;;;5.94;92.40
11268;BME280;49397;47.474;9.416;2022-11-15T03:05:08;95166.59;;;5.82;93.50
11268;BME280;49397;47.474;9.416;2022-11-15T03:10:23;95171.97;;;5.82;94.50
11268;BME280;49397;47.474;9.416;2022-11-15T03:12:57;95172.50;;;5.84;94.24
11268;BME280;49397;47.474;9.416;2022-11-15T03:15:30;95169.91;;;5.97;92.93
11268;BME280;49397;47.474;9.416;2022-11-15T03:18:05;95159.06;;;6.02;92.60
11268;BME280;49397;47.474;9.416;2022-11-15T03:20:32;95160.97;;;6.02;93.17
11268;BME280;49397;47.474;9.416;2022-11-15T03:23:04;95161.09;;;5.92;94.27
11268;BME280;49397;47.474;9.416;2022-11-15T03:25:31;95166.06;;;5.80;94.71
11268;BME280;49397;47.474;9.416;2022-11-15T03:28:01;95166.53;;;5.87;94.67
11268;BME280;49397;47.474;9.416;2022-11-15T03:30:30;95162.19;;;5.91;94.51
11268;BME280;49397;47.474;9.416;2022-11-15T03:32:58;95160.00;;;5.93;95.01
11268;BME280;49397;47.474;9.416;2022-11-15T03:35:27;95158.88;;;5.99;93.53
11268;BME280;49397;47.474;9.416;2022-11-15T03:38:19;95155.88;;;6.00;92.51
11268;BME280;49397;47.474;9.416;2022-11-15T03:40:59;95143.44;;;6.04;92.36
11268;BME280;49397;47.474;9.416;2022-11-15T03:45:58;95138.91;;;6.00;93.39
11268;BME280;49397;47.474;9.416;2022-11-15T03:48:35;95147.94;;;6.09;92.80
11268;BME280;49397;47.474;9.416;2022-11-15T03:51:04;95132.16;;;6.02;93.44
11268;BME280;49397;47.474;9.416;2022-11-15T03:53:30;95135.53;;;6.13;93.30
11268;BME280;49397;47.474;9.416;2022-11-15T03:55:57;95140.22;;;6.02;93.68
11268;BME280;49397;47.474;9.416;2022-11-15T03:58:22;95131.78;;;5.90;93.20
11268;BME280;49397;47.474;9.416;2022-11-15T04:00:48;95138.31;;;5.84;94.34
11268;BME280;49397;47.474;9.416;2022-11-15T04:03:13;95118.03;;;5.68;94.70
11268;BME280;49397;47.474;9.416;2022-11-15T04:05:39;95131.53;;;5.87;93.76
11268;BME280;49397;47.474;9.416;2022-11-15T04:08:04;95132.28;;;5.92;93.97
11268;BME280;49397;47.474;9.416;2022-11-15T04:10:30;95126.69;;;5.89;93.42
11268;BME280;49397;47.474;9.416;2022-11-15T04:12:55;95137.59;;;5.74;95.14
11268;BME280;49397;47.474;9.416;2022-11-15T04:15:22;95137.59;;;5.74;95.58
11268;BME280;49397;47.474;9.416;2022-11-15T04:17:50;95136.00;;;5.73;96.29
11268;BME280;49397;47.474;9.416;2022-11-15T04:20:19;95134.59;;;5.75;96.64
11268;BME280;49397;47.474;9.416;2022-11-15T04:23:06;95137.88;;;5.72;96.67
11268;BME280;49397;47.474;9.416;2022-11-15T04:25:52;95133.88;;;5.70;95.48
11268;BME280;49397;47.474;9.416;2022-11-15T04:28:18;95118.53;;;5.70;94.86
11268;BME280;49397;47.474;9.416;2022-11-15T04:30:44;95120.13;;;5.71;95.10
11268;BME280;49397;47.474;9.416;2022-11-15T04:33:09;95124.13;;;5.74;95.42
11268;BME280;49397;47.474;9.416;2022-11-15T04:35:35;95118.75;;;5.74;95.66
11268;BME280;49397;47.474;9.416;2022-11-15T04:38:01;95123.59;;;5.77;95.38
11268;BME280;49397;47.474;9.416;2022-11-15T04:40:27;95117.06;;;5.59;95.71
11268;BME280;49397;47.474;9.416;2022-11-15T04:42:52;95112.50;;;5.55;95.96
11268;BME280;49397;47.474;9.416;2022-11-15T04:45:18;95122.72;;;5.58;96.43
11268;BME280;49397;47.474;9.416;2022-11-15T04:47:44;95124.63;;;5.57;96.49
11268;BME280;49397;47.474;9.416;2022-11-15T04:50:11;95124.28;;;5.64;96.04
11268;BME280;49397;47.474;9.416;2022-11-15T04:52:42;95113.22;;;5.65;96.42
11268;BME280;49397;47.474;9.416;2022-11-15T04:55:10;95120.19;;;5.66;96.06
11268;BME280;49397;47.474;9.416;2022-11-15T04:57:35;95115.91;;;5.65;95.57
11268;BME280;49397;47.474;9.416;2022-11-15T05:00:06;95122.25;;;5.51;96.64
11268;BME280;49397;47.474;9.416;2022-11-15T05:02:32;95118.19;;;5.53;96.19
11268;BME280;49397;47.474;9.416;2022-11-15T05:05:16;95104.25;;;5.51;96.38
11268;BME280;49397;47.474;9.416;2022-11-15T05:07:42;95103.09;;;5.57;96.05
11268;BME280;49397;47.474;9.416;2022-11-15T05:10:08;95090.22;;;5.54;96.66
11268;BME280;49397;47.474;9.416;2022-11-15T05:12:33;95098.56;;;5.29;95.25
11268;BME280;49397;47.474;9.416;2022-11-15T05:14:59;95107.88;;;5.13;96.77
11268;BME280;49397;47.474;9.416;2022-11-15T05:17:24;95106.22;;;5.17;97.06
11268;BME280;49397;47.474;9.416;2022-11-15T05:19:50;95103.03;;;5.15;97.62
11268;BME280;49397;47.474;9.416;2022-11-15T05:22:17;95097.47;;;5.07;97.51
11268;BME280;49397;47.474;9.416;2022-11-15T05:24:43;95096.84;;;5.15;97.14
11268;BME280;49397;47.474;9.416;2022-11-15T05:27:08;95101.38;;;5.19;97.71
11268;BME280;49397;47.474;9.416;2022-11-15T05:29:34;95093.00;;;5.21;97.24
11268;BME280;49397;47.474;9.416;2022-11-15T05:31:59;95092.78;;;5.17;98.15
11268;BME280;49397;47.474;9.416;2022-11-15T05:34:25;95095.16;;;5.19;98.01
11268;BME280;49397;47.474;9.416;2022-11-15T05:36:52;95089.75;;;5.24;97.77
11268;BME280;49397;47.474;9.416;2022-11-15T05:39:17;95096.31;;;5.13;97.16
11268;BME280;49397;47.474;9.416;2022-11-15T05:41:49;95091.28;;;5.06;97.47
11268;BME280;49397;47.474;9.416;2022-11-15T05:44:17;95083.53;;;5.00;97.64
11268;BME280;49397;47.474;9.416;2022-11-15T05:46:46;95084.88;;;5.02;97.49
11268;BME280;49397;47.474;9.416;2022-11-15T05:49:15;95077.13;;;4.96;97.57
11268;BME280;49397;47.474;9.416;2022-11-15T05:51:44;95083.78;;;5.03;98.52
11268;BME280;49397;47.474;9.416;2022-11-15T05:54:11;95084.03;;;5.07;99.00
11268;BME280;49397;47.474;9.416;2022-11-15T05:56:37;95070.34;;;5.03;99.60
11268;BME280;49397;47.474;9.416;2022-11-15T05:59:03;95071.38;;;5.07;99.87
11268;BME280;49397;47.474;9.416;2022-11-15T06:01:29;95072.34;;;5.16;99.93
11268;BME280;49397;47.474;9.416;2022-11-15T06:03:55;95080.81;;;5.05;98.14
11268;BME280;49397;47.474;9.416;2022-11-15T06:06:20;95087.94;;;4.91;98.05
11268;BME280;49397;47.474;9.416;2022-11-15T06:08:46;95076.00;;;4.73;99.05
11268;BME280;49397;47.474;9.416;2022-11-15T06:11:13;95088.84;;;4.81;99.58
11268;BME280;49397;47.474;9.416;2022-11-15T06:13:38;95088.69;;;4.96;99.72
11268;BME280;49397;47.474;9.416;2022-11-15T06:16:04;95087.56;;;5.02;99.28
11268;BME280;49397;47.474;9.416;2022-11-15T06:18:32;95085.16;;;5.01;98.84
11268;BME280;49397;47.474;9.416;2022-11-15T06:20:59;95084.06;;;5.02;98.17
11268;BME280;49397;47.474;9.416;2022-11-15T06:23:24;95084.34;;;5.00;97.76
11268;BME280;49397;47.474;9.416;2022-11-15T06:25:50;95070.78;;;4.87;97.59
11268;BME280;49397;47.474;9.416;2022-11-15T06:28:15;95080.44;;;4.88;98.30
11268;BME280;49397;47.474;9.416;2022-11-15T06:30:41;95080.47;;;4.83;99.02
11268;BME280;49397;47.474;9.416;2022-11-15T06:33:07;95090.66;;;4.86;99.10
11268;BME280;49397;47.474;9.416;2022-11-15T06:35:34;95086.19;;;4.76;98.36
11268;BME280;49397;47.474;9.416;2022-11-15T06:38:06;95093.69;;;4.79;97.53
11268;BME280;49397;47.474;9.416;2022-11-15T06:40:34;95082.19;;;4.74;98.03
11268;BME280;49397;47.474;9.416;2022-11-15T06:43:00;95083.28;;;4.73;99.31
11268;BME280;49397;47.474;9.416;2022-11-15T06:45:26;95085.16;;;4.72;99.64
11268;BME280;49397;47.474;9.416;2022-11-15T06:47:51;95089.44;;;4.73;99.17
11268;BME280;49397;47.474;9.416;2022-11-15T06:50:17;95081.19;;;4.64;99.68
11268;BME280;49397;47.474;9.416;2022-11-15T06:52:42;95073.06;;;4.69;99.11
11268;BME280;49397;47.474;9.416;2022-11-15T06:55:08;95082.44;;;4.77;99.13
11268;BME280;49397;47.474;9.416;2022-11-15T06:57:34;95073.84;;;4.75;98.70
11268;BME280;49397;47.474;9.416;2022-11-15T07:00:00;95066.03;;;4.79;97.72
11268;BME280;49397;47.474;9.416;2022-11-15T07:02:25;95079.47;;;4.79;99.09
11268;BME280;49397;47.474;9.416;2022-11-15T07:04:51;95070.84;;;4.82;99.00
11268;BME280;49397;47.474;9.416;2022-11-15T07:07:16;95070.25;;;4.85;98.58
11268;BME280;49397;47.474;9.416;2022-11-15T07:09:42;95071.28;;;4.89;98.87
11268;BME280;49397;47.474;9.416;2022-11-15T07:12:07;95076.56;;;4.99;98.09
11268;BME280;49397;47.474;9.416;2022-11-15T07:14:33;95074.06;;;5.07;97.48
11268;BME280;49397;47.474;9.416;2022-11-15T07:16:58;95068.63;;;5.12;97.53
11268;BME280;49397;47.474;9.416;2022-11-15T07:19:23;95070.75;;;5.15;97.43
11268;BME280;49397;47.474;9.416;2022-11-15T07:21:49;95062.97;;;5.14;98.17
11268;BME280;49397;47.474;9.416;2022-11-15T07:24:14;95062.81;;;5.29;97.75
11268;BME280;49397;47.474;9.416;2022-11-15T07:26:40;95054.53;;;5.44;97.14
11268;BME280;49397;47.474;9.416;2022-11-15T07:29:05;95060.13;;;5.71;97.11
11268;BME280;49397;47.474;9.416;2022-11-15T07:31:31;95053.03;;;5.80;96.68
11268;BME280;49397;47.474;9.416;2022-11-15T07:33:56;95059.16;;;6.04;95.52
11268;BME280;49397;47.474;9.416;2022-11-15T07:36:22;95067.97;;;6.09;94.42
11268;BME280;49397;47.474;9.416;2022-11-15T07:38:47;95065.69;;;6.16;93.83
11268;BME280;49397;47.474;9.416;2022-11-15T07:41:13;95067.25;;;6.23;93.31
11268;BME280;49397;47.474;9.416;2022-11-15T07:43:38;95073.44;;;6.04;94.59
11268;BME280;49397;47.474;9.416;2022-11-15T07:46:06;95071.78;;;6.08;95.85
11268;BME280;49397;47.474;9.416;2022-11-15T07:48:35;95063.59;;;5.95;94.92
11268;BME280;49397;47.474;9.416;2022-11-15T07:51:00;95062.72;;;5.99;95.16
11268;BME280;49397;47.474;9.416;2022-11-15T07:53:26;95064.03;;;6.21;94.57
11268;BME280;49397;47.474;9.416;2022-11-15T07:55:51;95060.59;;;6.52;95.19
11268;BME280;49397;47.474;9.416;2022-11-15T07:58:19;95055.56;;;6.78;94.00
11268;BME280;49397;47.474;9.416;2022-11-15T08:00:44;95061.50;;;6.93;93.87
11268;BME280;49397;47.474;9.416;2022-11-15T08:03:15;95050.03;;;7.01;95.23
11268;BME280;49397;47.474;9.416;2022-11-15T08:05:41;95042.72;;;7.02;95.66
11268;BME280;49397;47.474;9.416;2022-11-15T08:08:09;95051.53;;;7.07;94.01
11268;BME280;49397;47.474;9.416;2022-11-15T08:10:35;95031.84;;;7.07;94.97
11268;BME280;49397;47.474;9.416;2022-11-15T08:13:07;95043.66;;;7.11;95.97
11268;BME280;49397;47.474;9.416;2022-11-15T08:15:34;95031.75;;;6.98;97.44
11268;BME280;49397;47.474;9.416;2022-11-15T08:18:05;95048.16;;;7.15;98.37
11268;BME280;49397;47.474;9.416;2022-11-15T08:20:32;95042.88;;;7.24;97.94
11268;BME280;49397;47.474;9.416;2022-11-15T08:22:59;95034.28;;;7.22;98.02
11268;BME280;49397;47.474;9.416;2022-11-15T08:25:26;95041.75;;;7.38;97.31
11268;BME280;49397;47.474;9.416;2022-11-15T08:27:54;95036.13;;;7.62;96.45
11268;BME280;49397;47.474;9.416;2022-11-15T08:30:20;95029.41;;;7.87;93.92
11268;BME280;49397;47.474;9.416;2022-11-15T08:32:46;95033.00;;;7.96;91.11
11268;BME280;49397;47.474;9.416;2022-11-15T08:35:11;95029.56;;;8.04;91.38
11268;BME280;49397;47.474;9.416;2022-11-15T08:37:37;95029.94;;;8.24;92.15
11268;BME280;49397;47.474;9.416;2022-11-15T08:40:03;95023.00;;;8.32;93.97
11268;BME280;49397;47.474;9.416;2022-11-15T08:42:29;95021.84;;;8.24;96.39
11268;BME280;49397;47.474;9.416;2022-11-15T08:44:54;95021.66;;;8.07;98.31
11268;BME280;49397;47.474;9.416;2022-11-15T08:47:20;95016.78;;;8.09;97.70
11268;BME280;49397;47.474;9.416;2022-11-15T08:49:45;95020.56;;;8.08;98.61
11268;BME280;49397;47.474;9.416;2022-11-15T08:52:11;95022.84;;;8.15;98.94
11268;BME280;49397;47.474;9.416;2022-11-15T08:54:36;95019.63;;;8.13;99.85
11268;BME280;49397;47.474;9.416;2022-11-15T08:57:02;95017.31;;;8.20;98.93
11268;BME280;49397;47.474;9.416;2022-11-15T08:59:27;94995.56;;;8.03;99.90
11268;BME280;49397;47.474;9.416;2022-11-15T09:01:53;94990.47;;;8.01;100.00
11268;BME280;49397;47.474;9.416;2022-11-15T09:04:18;94996.53;;;8.20;100.00
11268;BME280;49397;47.474;9.416;2022-11-15T09:06:44;95002.94;;;8.24;100.00
11268;BME280;49397;47.474;9.416;2022-11-15T09:09:09;94992.53;;;8.40;99.89
11268;BME280;49397;47.474;9.416;2022-11-15T09:11:35;94991.19;;;8.51;98.58
11268;BME280;49397;47.474;9.416;2022-11-15T09:14:00;94991.25;;;8.59;97.17
11268;BME280;49397;47.474;9.416;2022-11-15T09:16:26;95000.28;;;8.77;96.99
11268;BME280;49397;47.474;9.416;2022-11-15T09:18:53;94994.59;;;8.87;96.08
11268;BME280;49397;47.474;9.416;2022-11-15T09:21:19;94990.09;;;8.82;97.07
11268;BME280;49397;47.474;9.416;2022-11-15T09:23:44;94998.53;;;8.81;96.52
11268;BME280;49397;47.474;9.416;2022-11-15T09:26:10;95000.22;;;8.68;97.02
11268;BME280;49397;47.474;9.416;2022-11-15T09:28:36;94988.50;;;8.51;96.70
11268;BME280;49397;47.474;9.416;2022-11-15T09:31:04;95008.75;;;8.40;97.32
11268;BME280;49397;47.474;9.416;2022-11-15T09:33:30;95007.06;;;8.66;97.39
11268;BME280;49397;47.474;9.416;2022-11-15T09:36:04;95002.31;;;9.02;95.34
11268;BME280;49397;47.474;9.416;2022-11-15T09:38:30;95004.94;;;8.85;94.70
11268;BME280;49397;47.474;9.416;2022-11-15T09:41:25;95006.91;;;9.41;93.07
11268;BME280;49397;47.474;9.416;2022-11-15T09:44:08;94997.56;;;9.55;90.43
11268;BME280;49397;47.474;9.416;2022-11-15T09:49:21;94989.38;;;9.86;89.55
11268;BME280;49397;47.474;9.416;2022-11-15T09:51:51;94993.50;;;9.83;91.33
11268;BME280;49397;47.474;9.416;2022-11-15T09:56:46;94978.97;;;9.71;93.65
11268;BME280;49397;47.474;9.416;2022-11-15T10:04:31;94987.28;;;9.91;92.82
11268;BME280;49397;47.474;9.416;2022-11-15T10:07:12;94979.00;;;9.79;92.22
11268;BME280;49397;47.474;9.416;2022-11-15T10:09:54;94986.44;;;9.57;93.52
11268;BME280;49397;47.474;9.416;2022-11-15T10:12:23;94974.69;;;9.70;92.27
11268;BME280;49397;47.474;9.416;2022-11-15T10:14:58;94967.69;;;9.69;91.84
11268;BME280;49397;47.474;9.416;2022-11-15T10:20:29;94961.00;;;9.75;92.27
11268;BME280;49397;47.474;9.416;2022-11-15T10:22:56;94966.69;;;9.65;92.36
11268;BME280;49397;47.474;9.416;2022-11-15T10:25:34;94954.44;;;9.76;91.02
11268;BME280;49397;47.474;9.416;2022-11-15T10:28:14;94954.16;;;9.86;90.54
11268;BME280;49397;47.474;9.416;2022-11-15T10:30:53;94956.19;;;9.80;90.94
11268;BME280;49397;47.474;9.416;2022-11-15T10:35:47;94957.84;;;10.15;89.75
11268;BME280;49397;47.474;9.416;2022-11-15T10:38:12;94954.03;;;10.25;89.04
11268;BME280;49397;47.474;9.416;2022-11-15T10:40:40;94954.81;;;10.51;87.77
11268;BME280;49397;47.474;9.416;2022-11-15T10:43:18;94950.13;;;10.77;86.27
11268;BME280;49397;47.474;9.416;2022-11-15T10:45:44;94939.84;;;11.00;85.48
11268;BME280;49397;47.474;9.416;2022-11-15T10:50:44;94940.16;;;10.98;85.83
11268;BME280;49397;47.474;9.416;2022-11-15T10:53:28;94939.75;;;11.17;85.73
11268;BME280;49397;47.474;9.416;2022-11-15T10:56:00;94945.22;;;11.08;86.44
11268;BME280;49397;47.474;9.416;2022-11-15T11:01:18;94930.94;;;10.82;86.10
11268;BME280;49397;47.474;9.416;2022-11-15T11:04:06;94943.16;;;10.59;87.44
11268;BME280;49397;47.474;9.416;2022-11-15T11:09:35;94925.44;;;10.53;88.29
11268;BME280;49397;47.474;9.416;2022-11-15T11:12:03;94924.78;;;10.64;89.58
11268;BME280;49397;47.474;9.416;2022-11-15T11:14:39;94929.38;;;10.73;87.91
11268;BME280;49397;47.474;9.416;2022-11-15T11:19:42;94939.97;;;10.48;90.88
11268;BME280;49397;47.474;9.416;2022-11-15T11:22:30;94931.50;;;10.50;92.06
11268;BME280;49397;47.474;9.416;2022-11-15T11:30:24;94923.84;;;10.60;91.59
11268;BME280;49397;47.474;9.416;2022-11-15T11:36:01;94920.66;;;10.50;91.12
11268;BME280;49397;47.474;9.416;2022-11-15T11:49:23;94920.97;;;10.57;91.61
11268;BME280;49397;47.474;9.416;2022-11-15T11:51:55;94922.22;;;10.59;92.26
11268;BME280;49397;47.474;9.416;2022-11-15T11:54:40;94919.03;;;10.66;91.93
11268;BME280;49397;47.474;9.416;2022-11-15T11:57:32;94920.97;;;10.57;92.37
11268;BME280;49397;47.474;9.416;2022-11-15T12:00:04;94926.41;;;10.57;91.94
11268;BME280;49397;47.474;9.416;2022-11-15T12:02:38;94920.81;;;10.53;92.74
11268;BME280;49397;47.474;9.416;2022-11-15T12:05:26;94920.16;;;10.65;92.77
11268;BME280;49397;47.474;9.416;2022-11-15T12:07:54;94906.44;;;10.61;92.41
11268;BME280;49397;47.474;9.416;2022-11-15T12:10:33;94917.28;;;10.53;92.72
11268;BME280;49397;47.474;9.416;2022-11-15T12:13:13;94922.09;;;10.39;93.39
11268;BME280;49397;47.474;9.416;2022-11-15T12:18:15;94931.22;;;10.43;93.65
11268;BME280;49397;47.474;9.416;2022-11-15T12:20:55;94912.34;;;10.46;93.19
11268;BME280;49397;47.474;9.416;2022-11-15T12:23:28;94923.19;;;10.46;94.25
11268;BME280;49397;47.474;9.416;2022-11-15T12:26:04;94910.44;;;10.47;93.91
11268;BME280;49397;47.474;9.416;2022-11-15T12:31:23;94908.59;;;10.13;94.57
11268;BME280;49397;47.474;9.416;2022-11-15T12:33:55;94905.38;;;10.20;94.74
11268;BME280;49397;47.474;9.416;2022-11-15T12:39:04;94900.28;;;10.18;95.37
11268;BME280;49397;47.474;9.416;2022-11-15T12:41:35;94898.53;;;10.14;95.07
11268;BME280;49397;47.474;9.416;2022-11-15T12:44:01;94901.91;;;10.19;95.02
11268;BME280;49397;47.474;9.416;2022-11-15T13:00:36;94890.88;;;9.99;96.78
11268;BME280;49397;47.474;9.416;2022-11-15T13:02:43;94874.13;;;10.05;96.35
11268;BME280;49397;47.474;9.416;2022-11-15T13:17:51;94847.41;;;9.78;97.88
11268;BME280;49397;47.474;9.416;2022-11-15T13:20:38;94846.44;;;9.83;98.13
11268;BME280;49397;47.474;9.416;2022-11-15T13:23:13;94830.97;;;9.75;97.81
11268;BME280;49397;47.474;9.416;2022-11-15T13:26:13;94829.38;;;9.74;97.85
11268;BME280;49397;47.474;9.416;2022-11-15T13:28:42;94819.03;;;9.59;98.51
11268;BME280;49397;47.474;9.416;2022-11-15T13:31:25;94813.28;;;9.43;99.87
11268;BME280;49397;47.474;9.416;2022-11-15T13:33:52;94808.06;;;9.47;99.92
11268;BME280;49397;47.474;9.416;2022-11-15T13:36:32;94806.75;;;9.44;100.00
11268;BME280;49397;47.474;9.416;2022-11-15T13:39:05;94796.59;;;9.50;99.83
11268;BME280;49397;47.474;9.416;2022-11-15T13:41:36;94795.59;;;9.46;99.80
11268;BME280;49397;47.474;9.416;2022-11-15T13:44:19;94790.84;;;9.43;100.00
11268;BME280;49397;47.474;9.416;2022-11-15T13:46:46;94789.06;;;9.55;100.00
11268;BME280;49397;47.474;9.416;2022-11-15T13:49:11;94775.41;;;9.43;100.00
11268;BME280;49397;47.474;9.416;2022-11-15T13:51:42;94779.84;;;9.39;100.00
11268;BME280;49397;47.474;9.416;2022-11-15T13:56:37;94769.50;;;9.24;100.00
11268;BME280;49397;47.474;9.416;2022-11-15T13:59:19;94771.56;;;9.27;100.00
11268;BME280;49397;47.474;9.416;2022-11-15T14:01:48;94773.81;;;9.34;100.00
11268;BME280;49397;47.474;9.416;2022-11-15T14:04:19;94768.53;;;9.46;100.00
11268;BME280;49397;47.474;9.416;2022-11-15T14:06:48;94767.44;;;9.47;100.00
11268;BME280;49397;47.474;9.416;2022-11-15T14:09:24;94760.75;;;9.44;100.00
11268;BME280;49397;47.474;9.416;2022-11-15T14:11:54;94751.03;;;9.43;99.48
11268;BME280;49397;47.474;9.416;2022-11-15T14:14:25;94751.00;;;9.52;99.09
11268;BME280;49397;47.474;9.416;2022-11-15T14:16:58;94740.50;;;9.59;99.38
11268;BME280;49397;47.474;9.416;2022-11-15T14:22:09;94719.44;;;9.64;98.84
11268;BME280;49397;47.474;9.416;2022-11-15T14:24:35;94717.59;;;9.56;98.79
11268;BME280;49397;47.474;9.416;2022-11-15T14:27:24;94719.44;;;9.64;97.90
11268;BME280;49397;47.474;9.416;2022-11-15T14:29:51;94711.03;;;9.66;97.85
11268;BME280;49397;47.474;9.416;2022-11-15T14:32:19;94705.63;;;9.66;98.00
11268;BME280;49397;47.474;9.416;2022-11-15T14:34:47;94700.81;;;9.63;98.73
11268;BME280;49397;47.474;9.416;2022-11-15T14:37:27;94693.50;;;9.63;99.22
11268;BME280;49397;47.474;9.416;2022-11-15T14:39:53;94682.53;;;9.51;98.47
11268;BME280;49397;47.474;9.416;2022-11-15T14:42:20;94691.00;;;9.50;97.30
11268;BME280;49397;47.474;9.416;2022-11-15T14:44:46;94690.50;;;9.39;99.81
11268;BME280;49397;47.474;9.416;2022-11-15T14:47:12;94683.34;;;9.35;100.00
11268;BME280;49397;47.474;9.416;2022-11-15T14:49:38;94673.50;;;9.30;100.00
11268;BME280;49397;47.474;9.416;2022-11-15T14:52:23;94678.75;;;9.35;99.71
11268;BME280;49397;47.474;9.416;2022-11-15T14:54:50;94673.00;;;9.37;98.59
11268;BME280;49397;47.474;9.416;2022-11-15T14:57:15;94675.72;;;9.45;98.84
11268;BME280;49397;47.474;9.416;2022-11-15T14:59:41;94667.44;;;9.42;97.31
11268;BME280;49397;47.474;9.416;2022-11-15T15:02:20;94667.44;;;9.42;96.61
11268;BME280;49397;47.474;9.416;2022-11-15T15:04:47;94658.84;;;9.40;96.22
11268;BME280;49397;47.474;9.416;2022-11-15T15:07:12;94656.28;;;9.43;96.43
11268;BME280;49397;47.474;9.416;2022-11-15T15:09:38;94652.31;;;9.32;97.47
11268;BME280;49397;47.474;9.416;2022-11-15T15:12:08;94656.78;;;9.37;97.38